createdAt,value
2023-03-27T00:00:20.534Z,8.89
2023-03-27T00:01:20.514Z,8.96
2023-03-27T00:02:20.558Z,8.89
2023-03-27T00:03:20.588Z,8.95
2023-03-27T00:04:20.534Z,8.92
2023-03-27T00:05:20.574Z,8.91
2023-03-27T00:06:20.497Z,8.89
2023-03-27T00:07:20.485Z,8.87
2023-03-27T00:08:20.486Z,8.92
2023-03-27T00:09:20.479Z,8.87
2023-03-27T00:10:20.473Z,8.91
2023-03-27T00:11:20.475Z,8.81
2023-03-27T00:12:20.466Z,8.91
2023-03-27T00:13:20.470Z,8.86
2023-03-27T00:14:20.459Z,8.80
2023-03-27T00:15:20.480Z,8.87
2023-03-27T00:16:20.505Z,8.84
2023-03-27T00:17:20.457Z,8.83
2023-03-27T00:18:20.464Z,8.71
2023-03-27T00:19:20.457Z,8.74
2023-03-27T00:20:20.442Z,8.71
2023-03-27T00:21:20.443Z,8.62
2023-03-27T00:22:20.450Z,8.73
2023-03-27T00:23:20.435Z,8.70
2023-03-27T00:24:20.428Z,8.73
2023-03-27T00:25:20.436Z,8.81
2023-03-27T00:26:20.419Z,8.65
2023-03-27T00:27:20.428Z,8.70
2023-03-27T00:28:20.416Z,8.66
2023-03-27T00:29:20.443Z,8.74
2023-03-27T00:30:20.407Z,8.65
2023-03-27T00:31:20.477Z,8.65
2023-03-27T00:32:20.402Z,8.73
2023-03-27T00:33:20.405Z,8.65
2023-03-27T00:34:20.408Z,8.63
2023-03-27T00:35:20.428Z,8.65
2023-03-27T00:36:20.394Z,8.63
2023-03-27T00:37:20.402Z,8.73
2023-03-27T00:38:20.389Z,8.58
2023-03-27T00:39:20.386Z,8.56
2023-03-27T00:40:20.398Z,8.63
2023-03-27T00:41:20.413Z,8.61
2023-03-27T00:42:20.375Z,8.63
2023-03-27T00:43:20.367Z,8.66
2023-03-27T00:44:20.363Z,8.71
2023-03-27T00:45:20.369Z,8.70
2023-03-27T00:46:20.407Z,8.77
2023-03-27T00:47:20.379Z,8.84
2023-03-27T00:48:20.350Z,8.80
2023-03-27T00:49:20.358Z,8.77
2023-03-27T00:50:20.342Z,8.77
2023-03-27T00:51:20.371Z,8.83
2023-03-27T00:52:20.337Z,8.73
2023-03-27T00:53:20.342Z,8.74
2023-03-27T00:54:20.339Z,8.77
2023-03-27T00:55:20.336Z,8.76
2023-03-27T00:56:20.330Z,8.76
2023-03-27T00:57:20.324Z,8.73
2023-03-27T00:58:20.322Z,8.66
2023-03-27T00:59:20.319Z,8.80
2023-03-27T01:00:20.311Z,8.71
2023-03-27T01:01:20.358Z,8.62
2023-03-27T01:02:20.328Z,8.62
2023-03-27T01:03:20.408Z,8.68
2023-03-27T01:04:20.303Z,8.59
2023-03-27T01:05:20.297Z,8.66
2023-03-27T01:06:20.296Z,8.58
2023-03-27T01:07:20.296Z,8.61
2023-03-27T01:08:20.284Z,8.53
2023-03-27T01:09:21.466Z,8.53
2023-03-27T01:10:20.273Z,8.56
2023-03-27T01:11:20.274Z,8.63
2023-03-27T01:12:20.267Z,8.65
2023-03-27T01:13:20.274Z,8.65
2023-03-27T01:14:20.270Z,8.71
2023-03-27T01:15:20.260Z,8.68
2023-03-27T01:16:20.297Z,8.70
2023-03-27T01:17:20.297Z,8.65
2023-03-27T01:18:20.249Z,8.61
2023-03-27T01:19:20.285Z,8.45
2023-03-27T01:20:20.263Z,8.50
2023-03-27T01:21:20.242Z,8.43
2023-03-27T01:22:20.245Z,8.40
2023-03-27T01:23:36.264Z,8.34
2023-03-27T01:24:20.226Z,8.20
2023-03-27T01:25:20.227Z,8.29
2023-03-27T01:26:35.523Z,8.22
2023-03-27T01:27:20.221Z,8.16
2023-03-27T01:28:20.218Z,8.12
2023-03-27T01:29:20.221Z,8.16
2023-03-27T01:30:20.221Z,8.11
2023-03-27T01:31:20.282Z,8.07
2023-03-27T01:32:20.199Z,8.02
2023-03-27T01:33:20.209Z,8.08
2023-03-27T01:34:20.191Z,7.97
2023-03-27T01:35:20.250Z,8.04
2023-03-27T01:36:20.189Z,7.93
2023-03-27T01:37:20.187Z,8.00
2023-03-27T01:38:20.179Z,8.07
2023-03-27T01:39:20.181Z,8.05
2023-03-27T01:40:20.177Z,8.11
2023-03-27T01:41:20.173Z,8.11
2023-03-27T01:42:20.166Z,8.05
2023-03-27T01:43:20.166Z,8.07
2023-03-27T01:44:20.160Z,8.16
2023-03-27T01:45:20.162Z,8.10
2023-03-27T01:46:20.202Z,8.08
2023-03-27T01:47:20.152Z,8.01
2023-03-27T01:48:20.172Z,8.05
2023-03-27T01:49:20.147Z,7.97
2023-03-27T01:50:20.158Z,8.04
2023-03-27T01:51:20.168Z,8.05
2023-03-27T01:52:20.127Z,8.12
2023-03-27T01:53:20.133Z,8.11
2023-03-27T01:54:20.123Z,8.19
2023-03-27T01:55:20.132Z,8.12
2023-03-27T01:56:20.121Z,8.22
2023-03-27T01:57:20.121Z,8.23
2023-03-27T01:58:20.108Z,8.25
2023-03-27T01:59:20.109Z,8.26
2023-03-27T02:00:20.125Z,8.23
2023-03-27T02:01:20.120Z,8.19
2023-03-27T02:02:20.107Z,8.12
2023-03-27T02:03:20.099Z,8.12
2023-03-27T02:04:20.126Z,8.11
2023-03-27T02:05:20.094Z,8.00
2023-03-27T02:06:20.084Z,7.93
2023-03-27T02:07:20.108Z,8.00
2023-03-27T02:08:20.074Z,7.92
2023-03-27T02:09:20.076Z,7.97
2023-03-27T02:10:20.078Z,7.80
2023-03-27T02:11:20.068Z,7.89
2023-03-27T02:12:20.068Z,7.95
2023-03-27T02:13:20.081Z,7.97
2023-03-27T02:14:20.074Z,8.00
2023-03-27T02:15:23.628Z,7.86
2023-03-27T02:16:20.088Z,7.72
2023-03-27T02:17:20.098Z,7.83
2023-03-27T02:18:20.041Z,7.85
2023-03-27T02:19:20.038Z,7.82
2023-03-27T02:20:20.023Z,7.83
2023-03-27T02:21:20.034Z,7.79
2023-03-27T02:22:20.031Z,7.72
2023-03-27T02:23:20.050Z,7.74
2023-03-27T02:24:20.031Z,7.69
2023-03-27T02:25:20.031Z,7.77
2023-03-27T02:26:20.008Z,7.74
2023-03-27T02:27:20.013Z,7.75
2023-03-27T02:28:19.999Z,7.71
2023-03-27T02:29:20.005Z,7.82
2023-03-27T02:30:19.999Z,7.55
2023-03-27T02:31:31.181Z,7.60
2023-03-27T02:32:20.085Z,7.48
2023-03-27T02:33:20.039Z,7.49
2023-03-27T02:34:19.983Z,7.50
2023-03-27T02:35:19.977Z,7.37
2023-03-27T02:36:19.975Z,7.46
2023-03-27T02:37:37.609Z,7.37
2023-03-27T02:38:37.604Z,7.37
2023-03-27T02:39:37.578Z,7.27
2023-03-27T02:40:39.964Z,7.20
2023-03-27T02:41:37.571Z,7.34
2023-03-27T02:42:37.570Z,7.31
2023-03-27T02:43:37.563Z,7.17
2023-03-27T02:44:46.638Z,7.09
2023-03-27T02:45:37.583Z,7.03
2023-03-27T02:46:37.555Z,7.13
2023-03-27T02:47:37.575Z,7.03
2023-03-27T02:48:37.541Z,7.15
2023-03-27T02:49:37.550Z,7.15
2023-03-27T02:50:37.535Z,7.23
2023-03-27T02:51:37.539Z,6.97
2023-03-27T02:52:37.526Z,7.09
2023-03-27T02:53:37.530Z,7.12
2023-03-27T02:54:37.547Z,7.12
2023-03-27T02:55:37.528Z,7.20
2023-03-27T02:56:37.556Z,7.12
2023-03-27T02:57:37.540Z,6.95
2023-03-27T02:58:37.507Z,7.02
2023-03-27T02:59:37.507Z,6.89
2023-03-27T03:00:37.511Z,7.02
2023-03-27T03:01:37.557Z,7.06
2023-03-27T03:02:37.626Z,6.99
2023-03-27T03:03:37.644Z,6.85
2023-03-27T03:04:37.484Z,6.87
2023-03-27T03:05:37.492Z,6.99
2023-03-27T03:06:37.477Z,6.89
2023-03-27T03:07:37.476Z,7.03
2023-03-27T03:08:37.470Z,6.91
2023-03-27T03:09:40.417Z,6.87
2023-03-27T03:10:37.484Z,6.87
2023-03-27T03:11:37.471Z,6.85
2023-03-27T03:12:37.452Z,6.80
2023-03-27T03:13:37.452Z,6.84
2023-03-27T03:14:37.446Z,6.81
2023-03-27T03:15:37.453Z,6.67
2023-03-27T03:16:37.458Z,6.70
2023-03-27T03:17:37.487Z,6.67
2023-03-27T03:18:37.426Z,6.69
2023-03-27T03:19:37.424Z,6.59
2023-03-27T03:20:37.420Z,6.67
2023-03-27T03:21:37.418Z,6.56
2023-03-27T03:22:37.411Z,6.69
2023-03-27T03:23:37.406Z,6.69
2023-03-27T03:24:37.404Z,6.64
2023-03-27T03:25:37.405Z,6.41
2023-03-27T03:26:37.421Z,6.38
2023-03-27T03:27:37.395Z,6.41
2023-03-27T03:28:37.387Z,6.48
2023-03-27T03:29:37.387Z,6.52
2023-03-27T03:30:37.413Z,6.46
2023-03-27T03:31:37.373Z,6.54
2023-03-27T03:32:37.372Z,6.49
2023-03-27T03:33:37.367Z,6.48
2023-03-27T03:34:37.363Z,6.43
2023-03-27T03:35:37.397Z,6.34
2023-03-27T03:36:37.355Z,6.25
2023-03-27T03:37:37.350Z,6.25
2023-03-27T03:38:37.850Z,6.25
2023-03-27T03:39:37.416Z,6.28
2023-03-27T03:40:37.331Z,6.37
2023-03-27T03:41:37.344Z,6.37
2023-03-27T03:42:37.347Z,6.28
2023-03-27T03:43:37.326Z,6.28
2023-03-27T03:44:37.314Z,6.19
2023-03-27T03:45:37.315Z,6.18
2023-03-27T03:46:37.445Z,6.14
2023-03-27T03:47:37.368Z,6.17
2023-03-27T03:48:37.315Z,6.19
2023-03-27T03:49:37.300Z,6.09
2023-03-27T03:50:37.291Z,6.17
2023-03-27T03:51:37.289Z,6.17
2023-03-27T03:52:37.285Z,6.22
2023-03-27T03:53:37.280Z,6.31
2023-03-27T03:54:37.273Z,6.34
2023-03-27T03:55:37.266Z,6.30
2023-03-27T03:56:37.322Z,6.25
2023-03-27T03:57:37.264Z,6.22
2023-03-27T03:58:37.273Z,6.19
2023-03-27T03:59:37.258Z,6.12
2023-03-27T04:00:37.246Z,6.17
2023-03-27T04:01:37.268Z,6.17
2023-03-27T04:02:37.345Z,6.27
2023-03-27T04:03:37.290Z,6.17
2023-03-27T04:04:37.223Z,6.19
2023-03-27T04:05:37.236Z,6.17
2023-03-27T04:06:37.215Z,6.04
2023-03-27T04:07:37.228Z,6.12
2023-03-27T04:08:37.205Z,6.03
2023-03-27T04:09:37.207Z,6.09
2023-03-27T04:10:37.199Z,6.08
2023-03-27T04:11:37.201Z,6.08
2023-03-27T04:12:37.186Z,6.04
2023-03-27T04:13:37.190Z,5.94
2023-03-27T04:14:37.261Z,5.97
2023-03-27T04:15:37.257Z,6.04
2023-03-27T04:16:37.168Z,6.11
2023-03-27T04:17:37.286Z,6.06
2023-03-27T04:18:37.276Z,6.03
2023-03-27T04:19:37.154Z,6.04
2023-03-27T04:20:37.150Z,5.96
2023-03-27T04:21:37.167Z,5.96
2023-03-27T04:22:37.147Z,5.96
2023-03-27T04:23:37.142Z,5.90
2023-03-27T04:24:37.138Z,5.93
2023-03-27T04:25:37.240Z,6.01
2023-03-27T04:26:37.158Z,5.86
2023-03-27T04:27:37.129Z,5.89
2023-03-27T04:28:37.115Z,5.91
2023-03-27T04:29:37.119Z,5.97
2023-03-27T04:30:37.187Z,5.89
2023-03-27T04:31:37.146Z,5.90
2023-03-27T04:32:37.184Z,5.90
2023-03-27T04:33:37.106Z,5.85
2023-03-27T04:34:37.100Z,5.89
2023-03-27T04:35:37.126Z,5.81
2023-03-27T04:36:37.084Z,5.93
2023-03-27T04:37:37.088Z,5.91
2023-03-27T04:38:37.236Z,5.93
2023-03-27T04:39:37.083Z,6.01
2023-03-27T04:40:37.067Z,5.89
2023-03-27T04:41:37.069Z,5.91
2023-03-27T04:42:37.059Z,5.86
2023-03-27T04:43:37.073Z,5.83
2023-03-27T04:44:37.050Z,5.89
2023-03-27T04:45:37.048Z,5.76
2023-03-27T04:46:37.139Z,5.85
2023-03-27T04:47:37.060Z,5.81
2023-03-27T04:48:37.034Z,5.74
2023-03-27T04:49:37.035Z,5.76
2023-03-27T04:50:37.023Z,5.76
2023-03-27T04:51:37.027Z,5.89
2023-03-27T04:52:37.015Z,5.76
2023-03-27T04:53:37.019Z,5.85
2023-03-27T04:54:37.003Z,5.89
2023-03-27T04:55:37.020Z,5.76
2023-03-27T04:56:37.019Z,5.89
2023-03-27T04:57:36.993Z,5.75
2023-03-27T04:58:37.583Z,5.72
2023-03-27T04:59:36.986Z,5.68
2023-03-27T05:00:36.977Z,5.68
2023-03-27T05:01:37.007Z,5.71
2023-03-27T05:02:37.045Z,5.71
2023-03-27T05:03:37.010Z,5.68
2023-03-27T05:04:36.956Z,5.63
2023-03-27T05:05:36.962Z,5.67
2023-03-27T05:06:38.338Z,5.76
2023-03-27T05:07:36.951Z,5.76
2023-03-27T05:08:36.930Z,5.85
2023-03-27T05:09:36.932Z,5.81
2023-03-27T05:10:36.928Z,5.82
2023-03-27T05:11:36.928Z,5.83
2023-03-27T05:12:36.915Z,5.82
2023-03-27T05:13:36.925Z,5.78
2023-03-27T05:14:36.911Z,5.78
2023-03-27T05:15:36.906Z,5.74
2023-03-27T05:16:36.937Z,5.82
2023-03-27T05:17:36.949Z,5.78
2023-03-27T05:18:36.912Z,5.90
2023-03-27T05:19:36.887Z,5.79
2023-03-27T05:20:36.952Z,5.89
2023-03-27T05:21:36.878Z,5.89
2023-03-27T05:22:36.875Z,5.96
2023-03-27T05:23:36.869Z,5.94
2023-03-27T05:24:36.864Z,6.06
2023-03-27T05:25:36.857Z,6.14
2023-03-27T05:26:38.501Z,6.15
2023-03-27T05:27:36.858Z,6.33
2023-03-27T05:28:36.841Z,6.22
2023-03-27T05:29:46.797Z,6.41
2023-03-27T05:30:36.848Z,6.44
2023-03-27T05:31:36.846Z,6.40
2023-03-27T05:32:36.853Z,6.43
2023-03-27T05:33:36.821Z,6.44
2023-03-27T05:34:36.847Z,6.55
2023-03-27T05:35:36.846Z,6.59
2023-03-27T05:36:36.817Z,6.61
2023-03-27T05:37:36.802Z,6.64
2023-03-27T05:38:36.802Z,6.67
2023-03-27T05:39:36.985Z,6.69
2023-03-27T05:40:36.787Z,6.77
2023-03-27T05:41:36.784Z,6.84
2023-03-27T05:42:36.776Z,6.81
2023-03-27T05:43:36.772Z,6.77
2023-03-27T05:44:36.761Z,6.97
2023-03-27T05:45:36.764Z,6.84
2023-03-27T05:46:36.807Z,6.80
2023-03-27T05:47:36.797Z,6.85
2023-03-27T05:48:36.743Z,6.80
2023-03-27T05:49:36.746Z,6.84
2023-03-27T05:50:36.752Z,6.88
2023-03-27T05:51:36.742Z,6.88
2023-03-27T05:52:36.724Z,6.89
2023-03-27T05:53:36.736Z,6.94
2023-03-27T05:54:36.719Z,6.99
2023-03-27T05:55:36.726Z,7.02
2023-03-27T05:56:36.743Z,7.03
2023-03-27T05:57:36.722Z,6.98
2023-03-27T05:58:36.711Z,6.89
2023-03-27T05:59:36.708Z,7.03
2023-03-27T06:00:36.695Z,6.98
2023-03-27T06:01:36.696Z,6.97
2023-03-27T06:02:36.770Z,7.10
2023-03-27T06:03:36.817Z,7.16
2023-03-27T06:04:36.696Z,7.13
2023-03-27T06:05:36.675Z,7.03
2023-03-27T06:06:36.695Z,7.10
2023-03-27T06:07:36.667Z,7.21
2023-03-27T06:08:36.653Z,7.25
2023-03-27T06:09:36.653Z,7.23
2023-03-27T06:10:36.650Z,7.35
2023-03-27T06:11:36.655Z,7.34
2023-03-27T06:12:36.639Z,7.39
2023-03-27T06:13:36.643Z,7.35
2023-03-27T06:14:36.629Z,7.39
2023-03-27T06:15:36.697Z,7.35
2023-03-27T06:16:36.626Z,7.46
2023-03-27T06:17:36.652Z,7.40
2023-03-27T06:18:36.625Z,7.35
2023-03-27T06:19:36.618Z,7.45
2023-03-27T06:20:36.607Z,7.42
2023-03-27T06:21:36.605Z,7.39
2023-03-27T06:22:36.637Z,7.40
2023-03-27T06:23:36.600Z,7.34
2023-03-27T06:24:36.590Z,7.40
2023-03-27T06:25:36.592Z,7.43
2023-03-27T06:26:36.582Z,7.52
2023-03-27T06:27:36.580Z,7.53
2023-03-27T06:28:36.572Z,7.50
2023-03-27T06:29:36.568Z,7.48
2023-03-27T06:30:36.562Z,7.43
2023-03-27T06:31:36.581Z,7.46
2023-03-27T06:32:36.616Z,7.52
2023-03-27T06:33:36.554Z,7.46
2023-03-27T06:34:36.549Z,7.43
2023-03-27T06:35:36.556Z,7.45
2023-03-27T06:36:36.538Z,7.35
2023-03-27T06:37:36.539Z,7.39
2023-03-27T06:38:36.550Z,7.35
2023-03-27T06:39:36.533Z,7.34
2023-03-27T06:40:36.537Z,7.30
2023-03-27T06:41:36.527Z,7.42
2023-03-27T06:42:36.521Z,7.34
2023-03-27T06:43:36.515Z,7.39
2023-03-27T06:44:36.507Z,7.53
2023-03-27T06:45:36.513Z,7.48
2023-03-27T06:46:45.212Z,7.50
2023-03-27T06:47:44.506Z,7.58
2023-03-27T06:48:36.514Z,7.63
2023-03-27T06:49:36.495Z,7.92
2023-03-27T06:50:36.480Z,7.87
2023-03-27T06:51:36.481Z,8.10
2023-03-27T06:52:36.476Z,8.22
2023-03-27T06:53:38.249Z,8.25
2023-03-27T06:54:36.491Z,8.33
2023-03-27T06:55:36.465Z,8.34
2023-03-27T06:56:36.478Z,8.34
2023-03-27T06:57:36.505Z,8.38
2023-03-27T06:58:36.465Z,8.44
2023-03-27T06:59:36.454Z,8.56
2023-03-27T07:00:36.447Z,8.65
2023-03-27T07:01:36.457Z,8.81
2023-03-27T07:02:36.477Z,8.98
2023-03-27T07:03:36.429Z,8.98
2023-03-27T07:04:36.432Z,9.10
2023-03-27T07:05:36.470Z,9.21
2023-03-27T07:06:37.854Z,9.05
2023-03-27T07:07:37.276Z,9.10
2023-03-27T07:08:36.416Z,9.13
2023-03-27T07:09:38.109Z,9.04
2023-03-27T07:10:36.443Z,9.04
2023-03-27T07:11:36.419Z,9.13
2023-03-27T07:12:36.402Z,9.17
2023-03-27T07:13:36.386Z,9.35
2023-03-27T07:14:36.584Z,9.50
2023-03-27T07:15:36.407Z,9.68
2023-03-27T07:16:36.459Z,9.72
2023-03-27T07:17:48.049Z,9.56
2023-03-27T07:18:36.382Z,9.60
2023-03-27T07:19:36.368Z,9.58
2023-03-27T07:20:36.367Z,9.94
2023-03-27T07:21:36.358Z,10.68
2023-03-27T07:22:36.364Z,11.96
2023-03-27T07:23:36.354Z,12.46
2023-03-27T07:24:36.356Z,13.60
2023-03-27T07:25:36.350Z,14.61
2023-03-27T07:26:36.380Z,15.47
2023-03-27T07:27:36.339Z,16.38
2023-03-27T07:28:36.337Z,17.22
2023-03-27T07:29:36.338Z,17.86
2023-03-27T07:30:36.426Z,18.47
2023-03-27T07:31:54.894Z,18.78
2023-03-27T07:32:37.494Z,19.14
2023-03-27T07:33:36.345Z,19.44
2023-03-27T07:34:36.337Z,19.69
2023-03-27T07:35:36.342Z,19.94
2023-03-27T07:36:36.328Z,20.42
2023-03-27T07:37:38.022Z,20.80
2023-03-27T07:38:36.321Z,21.27
2023-03-27T07:39:36.324Z,21.37
2023-03-27T07:40:40.081Z,20.72
2023-03-27T07:41:36.312Z,20.92
2023-03-27T07:42:36.344Z,21.21
2023-03-27T07:43:36.321Z,21.84
2023-03-27T07:44:36.307Z,21.31
2023-03-27T07:45:36.407Z,20.10
2023-03-27T07:46:36.317Z,19.47
2023-03-27T07:47:36.360Z,18.10
2023-03-27T07:48:36.333Z,17.06
2023-03-27T07:49:39.740Z,16.08
2023-03-27T07:50:36.318Z,15.41
2023-03-27T07:51:36.304Z,16.60
2023-03-27T07:52:36.301Z,17.72
2023-03-27T07:53:36.303Z,17.52
2023-03-27T07:54:36.298Z,16.66
2023-03-27T07:55:36.305Z,16.07
2023-03-27T07:56:36.357Z,15.65
2023-03-27T07:57:49.793Z,14.96
2023-03-27T07:58:36.336Z,14.50
2023-03-27T07:59:36.297Z,15.11
2023-03-27T08:00:36.311Z,15.07
2023-03-27T08:01:36.291Z,14.50
2023-03-27T08:02:36.327Z,14.12
2023-03-27T08:03:36.496Z,13.60
2023-03-27T08:04:36.380Z,13.14
2023-03-27T08:05:36.313Z,13.04
2023-03-27T08:06:36.294Z,12.59
2023-03-27T08:07:36.307Z,12.37
2023-03-27T08:08:36.288Z,12.05
2023-03-27T08:09:36.292Z,11.96
2023-03-27T08:10:36.296Z,11.88
2023-03-27T08:11:36.287Z,13.04
2023-03-27T08:12:36.332Z,13.05
2023-03-27T08:13:36.287Z,13.12
2023-03-27T08:14:36.302Z,13.01
2023-03-27T08:15:36.274Z,13.00
2023-03-27T08:16:36.324Z,13.78
2023-03-27T08:17:36.414Z,13.55
2023-03-27T08:18:36.279Z,13.15
2023-03-27T08:19:36.273Z,12.97
2023-03-27T08:20:36.287Z,12.59
2023-03-27T08:21:36.277Z,12.38
2023-03-27T08:22:36.281Z,14.12
2023-03-27T08:23:36.272Z,15.21
2023-03-27T08:24:36.276Z,15.65
2023-03-27T08:25:36.278Z,16.11
2023-03-27T08:26:36.288Z,17.22
2023-03-27T08:27:36.262Z,18.12
2023-03-27T08:28:36.268Z,18.15
2023-03-27T08:29:36.263Z,19.26
2023-03-27T08:30:36.295Z,19.94
2023-03-27T08:31:36.267Z,20.74
2023-03-27T08:32:36.316Z,20.94
2023-03-27T08:33:36.266Z,19.69
2023-03-27T08:34:36.268Z,18.67
2023-03-27T08:35:36.294Z,18.14
2023-03-27T08:36:36.264Z,17.41
2023-03-27T08:37:36.278Z,18.08
2023-03-27T08:38:36.266Z,18.63
2023-03-27T08:39:36.261Z,17.84
2023-03-27T08:40:36.267Z,17.21
2023-03-27T08:41:36.258Z,16.64
2023-03-27T08:42:36.294Z,17.70
2023-03-27T08:43:36.277Z,18.88
2023-03-27T08:44:36.276Z,19.83
2023-03-27T08:45:36.260Z,19.13
2023-03-27T08:46:36.325Z,18.33
2023-03-27T08:47:36.317Z,18.73
2023-03-27T08:48:36.279Z,18.17
2023-03-27T08:49:36.261Z,18.33
2023-03-27T08:50:36.279Z,17.66
2023-03-27T08:51:36.279Z,16.97
2023-03-27T08:52:36.288Z,16.41
2023-03-27T08:53:36.264Z,15.69
2023-03-27T08:54:36.275Z,15.06
2023-03-27T08:55:36.267Z,14.45
2023-03-27T08:56:36.307Z,14.06
2023-03-27T08:57:36.280Z,13.78
2023-03-27T08:58:36.300Z,13.48
2023-03-27T08:59:36.273Z,13.33
2023-03-27T09:00:36.272Z,13.59
2023-03-27T09:01:36.323Z,15.03
2023-03-27T09:02:36.575Z,16.07
2023-03-27T09:03:36.291Z,15.90
2023-03-27T09:04:37.651Z,16.23
2023-03-27T09:05:36.273Z,17.22
2023-03-27T09:06:36.276Z,17.66
2023-03-27T09:07:36.275Z,18.35
2023-03-27T09:08:36.280Z,19.23
2023-03-27T09:09:36.282Z,20.38
2023-03-27T09:10:36.289Z,20.99
2023-03-27T09:11:36.278Z,21.17
2023-03-27T09:12:37.304Z,21.91
2023-03-27T09:13:36.277Z,22.25
2023-03-27T09:14:36.283Z,21.77
2023-03-27T09:15:36.274Z,20.57
2023-03-27T09:16:36.312Z,19.44
2023-03-27T09:17:36.307Z,18.55
2023-03-27T09:18:36.430Z,17.84
2023-03-27T09:19:36.287Z,16.94
2023-03-27T09:20:36.294Z,16.56
2023-03-27T09:21:36.283Z,16.12
2023-03-27T09:22:36.311Z,16.30
2023-03-27T09:23:36.282Z,16.88
2023-03-27T09:24:36.284Z,16.60
2023-03-27T09:25:36.282Z,16.09
2023-03-27T09:26:36.302Z,16.88
2023-03-27T09:27:36.281Z,17.08
2023-03-27T09:28:36.289Z,16.64
2023-03-27T09:29:36.282Z,16.08
2023-03-27T09:30:36.288Z,16.20
2023-03-27T09:31:36.347Z,16.15
2023-03-27T09:32:36.308Z,15.84
2023-03-27T09:33:36.292Z,16.24
2023-03-27T09:34:36.344Z,17.28
2023-03-27T09:35:36.316Z,18.05
2023-03-27T09:36:36.283Z,18.70
2023-03-27T09:37:37.051Z,19.28
2023-03-27T09:38:36.290Z,19.91
2023-03-27T09:39:36.283Z,20.38
2023-03-27T09:40:36.293Z,20.88
2023-03-27T09:41:36.291Z,20.95
2023-03-27T09:42:36.293Z,21.24
2023-03-27T09:43:36.285Z,20.74
2023-03-27T09:44:36.285Z,20.84
2023-03-27T09:45:36.286Z,20.72
2023-03-27T09:46:36.333Z,20.48
2023-03-27T09:47:36.348Z,20.18
2023-03-27T09:48:36.284Z,20.10
2023-03-27T09:49:36.284Z,20.21
2023-03-27T09:50:36.335Z,19.91
2023-03-27T09:51:36.314Z,19.41
2023-03-27T09:52:36.286Z,19.18
2023-03-27T09:53:36.287Z,19.26
2023-03-27T09:54:36.286Z,19.13
2023-03-27T09:55:36.290Z,19.11
2023-03-27T09:56:36.319Z,19.26
2023-03-27T09:57:36.282Z,18.72
2023-03-27T09:58:36.289Z,18.69
2023-03-27T09:59:36.283Z,18.85
2023-03-27T10:00:36.318Z,18.87
2023-03-27T10:01:36.405Z,18.73
2023-03-27T10:02:36.308Z,18.63
2023-03-27T10:03:36.318Z,18.33
2023-03-27T10:04:36.288Z,18.17
2023-03-27T10:05:36.284Z,18.00
2023-03-27T10:06:36.311Z,17.52
2023-03-27T10:07:36.284Z,17.26
2023-03-27T10:08:36.290Z,17.00
2023-03-27T10:09:36.291Z,16.68
2023-03-27T10:10:36.312Z,16.50
2023-03-27T10:11:36.282Z,16.43
2023-03-27T10:12:36.287Z,16.24
2023-03-27T10:13:36.297Z,16.05
2023-03-27T10:14:36.290Z,16.17
2023-03-27T10:15:36.297Z,16.45
2023-03-27T10:16:36.347Z,16.66
2023-03-27T10:17:36.332Z,17.00
2023-03-27T10:18:36.287Z,17.23
2023-03-27T10:19:36.286Z,17.41
2023-03-27T10:20:36.290Z,17.41
2023-03-27T10:21:36.284Z,17.33
2023-03-27T10:22:36.332Z,16.98
2023-03-27T10:23:36.301Z,16.64
2023-03-27T10:24:36.296Z,16.27
2023-03-27T10:25:36.288Z,15.92
2023-03-27T10:26:36.292Z,15.43
2023-03-27T10:27:36.363Z,15.50
2023-03-27T10:28:36.295Z,15.59
2023-03-27T10:29:37.642Z,15.64
2023-03-27T10:30:36.281Z,15.59
2023-03-27T10:31:36.324Z,15.82
2023-03-27T10:32:36.306Z,15.94
2023-03-27T10:33:36.300Z,15.96
2023-03-27T10:34:36.289Z,16.23
2023-03-27T10:35:37.020Z,16.64
2023-03-27T10:36:36.286Z,16.79
2023-03-27T10:37:36.290Z,16.97
2023-03-27T10:38:36.308Z,17.33
2023-03-27T10:39:36.280Z,17.43
2023-03-27T10:40:36.288Z,17.46
2023-03-27T10:41:36.279Z,17.48
2023-03-27T10:42:36.305Z,17.48
2023-03-27T10:43:36.280Z,17.56
2023-03-27T10:44:36.285Z,17.62
2023-03-27T10:45:36.285Z,17.75
2023-03-27T10:46:36.372Z,17.99
2023-03-27T10:47:36.389Z,18.20
2023-03-27T10:48:36.281Z,18.41
2023-03-27T10:49:36.285Z,18.52
2023-03-27T10:50:36.294Z,18.66
2023-03-27T10:51:46.169Z,18.78
2023-03-27T10:52:36.280Z,18.81
2023-03-27T10:53:36.329Z,19.02
2023-03-27T10:54:36.379Z,19.21
2023-03-27T10:55:36.278Z,19.25
2023-03-27T10:56:36.317Z,19.21
2023-03-27T10:57:36.277Z,18.99
2023-03-27T10:58:36.282Z,18.69
2023-03-27T10:59:41.944Z,18.42
2023-03-27T11:00:36.283Z,17.99
2023-03-27T11:01:36.346Z,17.68
2023-03-27T11:02:36.291Z,17.30
2023-03-27T11:03:36.311Z,16.76
2023-03-27T11:04:36.274Z,16.52
2023-03-27T11:05:36.334Z,16.35
2023-03-27T11:06:40.625Z,16.04
2023-03-27T11:07:36.290Z,16.00
2023-03-27T11:08:36.274Z,15.72
2023-03-27T11:09:36.285Z,15.35
2023-03-27T11:10:36.308Z,15.28
2023-03-27T11:11:36.277Z,15.51
2023-03-27T11:12:36.281Z,15.76
2023-03-27T11:13:36.277Z,15.93
2023-03-27T11:14:36.272Z,15.94
2023-03-27T11:15:36.278Z,16.04
2023-03-27T11:16:36.357Z,16.08
2023-03-27T11:17:36.323Z,16.01
2023-03-27T11:18:36.274Z,15.90
2023-03-27T11:19:36.299Z,15.83
2023-03-27T11:20:36.270Z,15.65
2023-03-27T11:21:36.269Z,15.53
2023-03-27T11:22:36.268Z,15.41
2023-03-27T11:23:36.276Z,15.17
2023-03-27T11:24:36.268Z,14.98
2023-03-27T11:25:36.275Z,14.96
2023-03-27T11:26:36.291Z,14.88
2023-03-27T11:27:36.266Z,14.89
2023-03-27T11:28:36.269Z,14.83
2023-03-27T11:29:36.277Z,14.83
2023-03-27T11:30:36.267Z,14.70
2023-03-27T11:31:36.348Z,14.54
2023-03-27T11:32:36.300Z,14.39
2023-03-27T11:33:36.275Z,14.43
2023-03-27T11:34:36.273Z,14.42
2023-03-27T11:35:36.314Z,14.46
2023-03-27T11:36:36.264Z,14.62
2023-03-27T11:37:36.265Z,14.88
2023-03-27T11:38:36.292Z,15.16
2023-03-27T11:39:36.283Z,15.50
2023-03-27T11:40:36.271Z,15.90
2023-03-27T11:41:36.290Z,16.27
2023-03-27T11:42:36.281Z,16.35
2023-03-27T11:43:36.264Z,16.39
2023-03-27T11:44:36.264Z,16.21
2023-03-27T11:45:36.267Z,16.12
2023-03-27T11:46:36.319Z,16.24
2023-03-27T11:47:36.314Z,16.30
2023-03-27T11:48:36.270Z,16.28
2023-03-27T11:49:36.267Z,16.45
2023-03-27T11:50:36.264Z,16.61
2023-03-27T11:51:36.264Z,16.66
2023-03-27T11:52:36.260Z,16.89
2023-03-27T11:53:36.267Z,17.11
2023-03-27T11:54:36.272Z,17.26
2023-03-27T11:55:36.260Z,17.46
2023-03-27T11:56:36.288Z,17.55
2023-03-27T11:57:36.262Z,17.70
2023-03-27T11:58:36.295Z,17.79
2023-03-27T11:59:36.261Z,17.78
2023-03-27T12:00:36.300Z,17.92
2023-03-27T12:01:36.362Z,18.10
2023-03-27T12:02:36.348Z,18.14
2023-03-27T12:03:36.379Z,18.27
2023-03-27T12:04:36.258Z,18.29
2023-03-27T12:05:36.259Z,18.35
2023-03-27T12:06:36.276Z,18.15
2023-03-27T12:07:38.014Z,17.68
2023-03-27T12:08:36.265Z,17.30
2023-03-27T12:09:36.275Z,17.08
2023-03-27T12:10:36.259Z,16.96
2023-03-27T12:11:36.279Z,16.66
2023-03-27T12:12:36.254Z,16.64
2023-03-27T12:13:41.859Z,16.58
2023-03-27T12:14:40.664Z,16.56
2023-03-27T12:15:36.258Z,16.63
2023-03-27T12:16:36.318Z,16.78
2023-03-27T12:17:36.296Z,16.98
2023-03-27T12:18:36.670Z,16.98
2023-03-27T12:19:39.047Z,16.85
2023-03-27T12:20:38.363Z,16.71
2023-03-27T12:21:36.256Z,16.68
2023-03-27T12:22:36.258Z,16.70
2023-03-27T12:23:36.259Z,16.67
2023-03-27T12:24:36.350Z,16.67
2023-03-27T12:25:36.401Z,16.63
2023-03-27T12:26:36.264Z,16.66
2023-03-27T12:27:36.251Z,16.46
2023-03-27T12:28:36.258Z,16.31
2023-03-27T12:29:36.317Z,15.97
2023-03-27T12:30:36.345Z,16.04
2023-03-27T12:31:36.279Z,15.93
2023-03-27T12:32:36.281Z,16.05
2023-03-27T12:33:36.256Z,16.28
2023-03-27T12:34:36.263Z,16.39
2023-03-27T12:35:36.306Z,16.38
2023-03-27T12:36:36.245Z,16.11
2023-03-27T12:37:36.250Z,16.07
2023-03-27T12:38:36.247Z,15.92
2023-03-27T12:39:36.251Z,15.84
2023-03-27T12:40:36.251Z,15.76
2023-03-27T12:41:36.243Z,15.89
2023-03-27T12:42:44.233Z,15.84
2023-03-27T12:43:36.248Z,15.76
2023-03-27T12:44:36.251Z,15.68
2023-03-27T12:45:41.537Z,15.64
2023-03-27T12:46:36.320Z,15.51
2023-03-27T12:47:36.320Z,15.34
2023-03-27T12:48:36.254Z,15.20
2023-03-27T12:49:47.049Z,15.10
2023-03-27T12:50:36.262Z,14.86
2023-03-27T12:51:36.254Z,14.83
2023-03-27T12:52:36.251Z,14.81
2023-03-27T12:53:36.251Z,14.51
2023-03-27T12:54:36.241Z,14.55
2023-03-27T12:55:36.247Z,14.52
2023-03-27T12:56:36.388Z,14.60
2023-03-27T12:57:36.388Z,14.73
2023-03-27T12:58:36.284Z,14.77
2023-03-27T12:59:36.245Z,14.80
2023-03-27T13:00:36.249Z,14.77
2023-03-27T13:01:49.103Z,14.83
2023-03-27T13:02:36.448Z,14.98
2023-03-27T13:03:36.332Z,15.16
2023-03-27T13:04:36.240Z,15.41
2023-03-27T13:05:36.266Z,15.57
2023-03-27T13:06:36.257Z,15.68